Time;durP1;ratioP1;P1;durP2;ratioP2;P2;SDS_P1;SDS_P2;PMS_P1;PMS_P2;Temp;Humidity;BMP_temperature;BMP_pressure;BME280_temperature;BME280_humidity;BME280_pressure;Samples;Min_cycle;Max_cycle;Signal;HPM_P1;HPM_P2
2023/06/23 00:01:46;;;;;;;14.00;10.40;;;;;;;31.15;37.72;100066.08;108001;1254;60760;-67
2023/06/23 00:04:13;;;;;;;17.30;12.00;;;;;;;31.10;37.59;100066.75;108006;1253;60006;-69
2023/06/23 00:06:41;;;;;;;14.10;11.20;;;;;;;30.99;37.78;100067.45;108007;1253;73148;-69
2023/06/23 00:09:13;;;;;;;16.10;11.20;;;;;;;30.89;38.11;100065.07;108018;1253;70278;-67
2023/06/23 00:11:41;;;;;;;16.00;11.20;;;;;;;30.77;38.15;100069.04;107993;1253;72040;-67
2023/06/23 00:14:09;;;;;;;12.40;9.90;;;;;;;30.74;38.57;100067.51;107947;1254;60549;-67
2023/06/23 00:16:37;;;;;;;18.50;11.60;;;;;;;30.68;38.33;100064.26;108039;1252;60419;-68
2023/06/23 00:19:04;;;;;;;18.20;10.80;;;;;;;30.78;38.17;100061.23;107994;1254;72532;-68
2023/06/23 00:21:32;;;;;;;16.20;10.50;;;;;;;30.70;38.40;100062.39;108040;1254;68539;-68
2023/06/23 00:23:59;;;;;;;17.50;12.20;;;;;;;30.51;38.52;100061.21;107896;1254;71536;-68
2023/06/23 00:26:27;;;;;;;12.80;9.80;;;;;;;30.53;38.73;100062.34;107934;1254;63819;-66
2023/06/23 00:28:54;;;;;;;13.30;11.10;;;;;;;30.45;38.73;100064.02;108026;1257;61086;-68
2023/06/23 00:31:22;;;;;;;16.30;11.80;;;;;;;30.13;39.25;100064.33;107923;1253;73788;-67
2023/06/23 00:33:51;;;;;;;19.80;10.70;;;;;;;30.15;39.39;100062.92;108040;1253;68697;-69
2023/06/23 00:36:18;;;;;;;13.90;11.00;;;;;;;30.13;39.46;100067.70;108025;1254;70715;-68
2023/06/23 00:38:46;;;;;;;16.50;11.80;;;;;;;30.17;39.62;100068.81;108071;1253;60447;-66
2023/06/23 00:41:14;;;;;;;13.90;10.70;;;;;;;30.23;39.63;100071.61;108019;1252;60477;-67
2023/06/23 00:43:49;;;;;;;15.90;11.40;;;;;;;30.27;39.50;100066.90;108004;1257;72154;-66
2023/06/23 00:46:18;;;;;;;15.30;10.50;;;;;;;30.31;39.45;100067.78;108058;1254;70685;-68
2023/06/23 00:48:48;;;;;;;16.00;10.80;;;;;;;30.46;39.11;100064.45;108108;1254;70738;-66
2023/06/23 00:51:16;;;;;;;17.70;11.30;;;;;;;30.30;39.26;100060.48;107908;1257;60967;-67
2023/06/23 00:53:49;;;;;;;14.00;10.70;;;;;;;30.15;39.70;100058.21;107902;1254;60436;-68
2023/06/23 00:56:21;;;;;;;14.90;11.70;;;;;;;30.24;39.18;100055.48;107918;1256;73253;-67
2023/06/23 00:58:49;;;;;;;15.30;11.50;;;;;;;30.18;39.39;100050.70;108054;1253;70247;-67
2023/06/23 01:01:17;;;;;;;11.80;9.90;;;;;;;30.09;39.76;100054.31;107993;1254;72670;-68
2023/06/23 01:03:44;;;;;;;15.80;11.50;;;;;;;30.01;39.65;100051.13;108000;1254;61192;-68
2023/06/23 01:06:16;;;;;;;13.80;11.50;;;;;;;30.04;39.93;100049.71;108000;1254;59119;-67
2023/06/23 01:09:12;;;;;;;16.00;11.90;;;;;;;29.87;40.15;100049.50;107845;1259;74221;-67
2023/06/23 01:11:55;;;;;;;15.60;11.80;;;;;;;29.79;40.23;100048.11;108566;1253;69191;-68
2023/06/23 01:14:30;;;;;;;15.20;11.50;;;;;;;29.60;40.85;100047.31;107857;1254;72733;-66
2023/06/23 01:17:00;;;;;;;13.70;11.20;;;;;;;29.56;40.80;100049.74;108009;1254;61865;-67
2023/06/23 01:19:47;;;;;;;17.40;11.90;;;;;;;29.84;40.45;100049.70;108089;1254;60335;-67
2023/06/23 01:22:23;;;;;;;13.20;11.20;;;;;;;29.73;40.73;100054.38;107968;1253;72689;-67
2023/06/23 01:25:02;;;;;;;18.00;12.20;;;;;;;29.63;41.07;100051.05;108048;1253;69990;-67
2023/06/23 01:28:11;;;;;;;17.30;12.10;;;;;;;29.57;41.17;100052.68;108119;1256;72809;-68
2023/06/23 01:30:39;;;;;;;17.70;11.30;;;;;;;29.52;41.61;100049.35;107513;1261;60593;-66
2023/06/23 01:33:11;;;;;;;21.60;12.50;;;;;;;29.50;41.47;100055.90;108001;1253;60255;-68
2023/06/23 01:35:42;;;;;;;15.80;13.00;;;;;;;29.67;41.51;100054.08;108009;1254;73973;-66
2023/06/23 01:38:27;;;;;;;15.30;10.60;;;;;;;29.67;41.67;100056.42;108073;1254;69387;-68
2023/06/23 01:40:55;;;;;;;12.80;11.30;;;;;;;29.86;41.17;100061.92;108016;1254;72776;-67
2023/06/23 01:43:29;;;;;;;15.00;12.00;;;;;;;29.82;41.08;100062.38;107935;1254;60433;-67
2023/06/23 01:46:04;;;;;;;15.30;10.60;;;;;;;29.91;41.01;100061.92;108072;1253;60322;-68
2023/06/23 01:48:32;;;;;;;15.80;11.90;;;;;;;30.01;40.62;100067.73;108198;1256;74362;-67
2023/06/23 01:51:02;;;;;;;16.30;12.40;;;;;;;30.10;40.60;100071.41;108690;1253;70103;-67
2023/06/23 01:53:30;;;;;;;30.70;11.50;;;;;;;29.95;40.80;100072.23;107945;1254;72986;-66
2023/06/23 01:56:01;;;;;;;16.90;12.70;;;;;;;29.95;40.89;100071.96;108174;1252;61668;-67
2023/06/23 01:58:28;;;;;;;14.00;11.40;;;;;;;29.99;40.90;100069.68;108039;1252;60289;-67
2023/06/23 02:00:56;;;;;;;14.30;11.00;;;;;;;29.87;41.16;100068.71;108157;1254;74272;-68
2023/06/23 02:03:23;;;;;;;15.30;12.80;;;;;;;29.83;41.22;100065.89;108200;1254;70837;-66
2023/06/23 02:05:51;;;;;;;16.20;10.90;;;;;;;30.02;40.98;100063.64;108073;1254;71407;-66
2023/06/23 02:08:19;;;;;;;16.60;12.20;;;;;;;30.05;40.60;100066.30;107841;1254;61493;-66
2023/06/23 02:10:46;;;;;;;15.40;11.70;;;;;;;30.07;40.91;100068.61;108045;1253;59192;-67
2023/06/23 02:13:13;;;;;;;15.40;12.00;;;;;;;30.29;40.43;100067.80;107980;1254;72739;-68
2023/06/23 02:15:41;;;;;;;17.30;11.60;;;;;;;30.41;39.96;100071.27;107998;1254;68914;-67
2023/06/23 02:18:09;;;;;;;15.00;11.70;;;;;;;30.40;40.26;100070.84;108096;1254;71530;-68
2023/06/23 02:20:36;;;;;;;16.60;12.40;;;;;;;30.42;40.03;100074.39;107990;1252;61658;-66
2023/06/23 02:23:05;;;;;;;19.40;12.70;;;;;;;30.35;40.25;100075.41;107961;1253;60216;-67
2023/06/23 02:25:33;;;;;;;15.70;12.00;;;;;;;30.37;40.10;100074.27;108223;1253;73924;-68
2023/06/23 02:28:01;;;;;;;14.00;12.40;;;;;;;30.38;39.94;100074.34;108624;1254;72214;-67
2023/06/23 02:30:29;;;;;;;13.00;10.90;;;;;;;30.20;40.50;100071.81;108957;1254;72905;-67
2023/06/23 02:32:56;;;;;;;17.20;10.70;;;;;;;30.18;40.51;100072.59;108569;1253;61637;-68
2023/06/23 02:35:24;;;;;;;17.60;12.00;;;;;;;30.36;40.11;100069.75;108008;1253;60466;-68
2023/06/23 02:37:55;;;;;;;17.20;11.50;;;;;;;30.38;40.23;100069.83;107957;1254;72894;-68
2023/06/23 02:40:23;;;;;;;17.20;12.20;;;;;;;30.85;39.17;100064.31;107982;1253;69436;-67
2023/06/23 02:42:59;;;;;;;20.70;12.60;;;;;;;30.91;39.34;100066.98;108112;1254;71570;-69
2023/06/23 02:45:31;;;;;;;15.40;11.30;;;;;;;30.73;39.81;100072.24;108020;1253;60686;-68
2023/06/23 02:47:59;;;;;;;15.80;12.20;;;;;;;30.67;39.69;100073.52;108217;1253;60063;-68
2023/06/23 02:50:28;;;;;;;17.60;12.50;;;;;;;30.83;39.84;100074.86;108054;1254;72998;-69
2023/06/23 02:52:59;;;;;;;19.70;12.00;;;;;;;30.62;40.22;100072.79;108107;1252;68588;-67
2023/06/23 02:55:26;;;;;;;;;;;;;;;30.77;39.72;100071.18;108005;1253;72682;-68
2023/06/23 02:57:54;;;;;;;16.90;12.00;;;;;;;30.89;39.62;100069.84;108057;1253;61692;-67
2023/06/23 03:00:22;;;;;;;17.50;11.80;;;;;;;31.07;39.24;100066.17;107781;1254;60467;-69
2023/06/23 03:02:55;;;;;;;15.20;11.20;;;;;;;31.13;39.15;100066.52;107901;1254;73848;-67
2023/06/23 03:05:22;;;;;;;16.00;11.70;;;;;;;31.12;39.40;100066.10;108087;1253;68727;-68
2023/06/23 03:07:50;;;;;;;16.50;12.40;;;;;;;31.15;39.03;100063.24;108501;1254;70888;-68
2023/06/23 03:10:19;;;;;;;16.00;11.60;;;;;;;31.28;38.94;100061.38;107935;1254;61642;-67
2023/06/23 03:12:46;;;;;;;19.90;12.80;;;;;;;31.61;38.25;100056.95;108429;1254;59192;-67
2023/06/23 03:15:14;;;;;;;15.70;12.60;;;;;;;31.54;38.28;100055.42;107973;1254;73936;-66
2023/06/23 03:17:42;;;;;;;15.40;11.30;;;;;;;31.42;38.64;100056.42;108078;1254;70590;-68
2023/06/23 03:20:54;;;;;;;13.80;12.10;;;;;;;31.41;38.48;100057.97;108005;1252;71464;-68
2023/06/23 03:23:22;;;;;;;20.00;11.80;;;;;;;31.53;38.15;100053.60;107568;1260;61102;-69
2023/06/23 03:25:49;;;;;;;14.70;11.40;;;;;;;31.58;38.44;100050.02;107910;1254;60492;-67
2023/06/23 03:28:19;;;;;;;20.20;12.50;;;;;;;31.69;38.15;100045.96;107998;1254;73035;-68
2023/06/23 03:30:48;;;;;;;16.40;11.30;;;;;;;31.71;37.90;100041.09;108136;1253;68809;-68
2023/06/23 03:33:20;;;;;;;15.00;11.40;;;;;;;31.87;37.98;100037.98;108095;1254;71675;-68
2023/06/23 03:35:47;;;;;;;16.80;12.80;;;;;;;31.93;37.74;100037.95;108046;1254;60472;-67
2023/06/23 03:38:17;;;;;;;16.40;12.70;;;;;;;31.74;38.29;100040.31;108011;1253;60345;-68
2023/06/23 03:40:54;;;;;;;19.80;12.30;;;;;;;31.86;37.96;100037.22;108165;1254;73810;-67
2023/06/23 03:43:53;;;;;;;16.40;12.00;;;;;;;31.99;37.35;100037.73;108061;1254;71232;-67
2023/06/23 03:46:23;;;;;;;20.10;11.60;;;;;;;32.03;37.48;100035.70;108863;1257;72679;-68
2023/06/23 03:48:54;;;;;;;15.80;11.60;;;;;;;32.16;37.34;100040.05;108026;1257;61639;-69
2023/06/23 03:51:21;;;;;;;13.70;8.60;;;;;;;32.35;36.84;100037.02;108296;1253;60493;-67
2023/06/23 03:53:48;;;;;;;16.00;11.90;;;;;;;32.47;37.11;100032.44;107920;1254;73815;-67
2023/06/23 03:56:16;;;;;;;22.20;13.60;;;;;;;32.82;36.62;100037.10;107890;1254;70124;-69
2023/06/23 03:58:45;;;;;;;17.20;12.10;;;;;;;32.86;36.33;100031.03;107990;1253;72764;-67
2023/06/23 04:01:13;;;;;;;22.70;12.70;;;;;;;33.12;36.19;100032.39;108049;1254;60708;-67
2023/06/23 04:03:40;;;;;;;18.70;13.00;;;;;;;33.37;35.73;100027.89;108065;1252;60264;-68
2023/06/23 04:06:08;;;;;;;16.80;12.20;;;;;;;33.36;35.83;100029.83;108044;1251;73060;-68
2023/06/23 04:08:35;;;;;;;17.10;12.90;;;;;;;33.59;35.32;100027.30;108144;1251;69394;-68
2023/06/23 04:11:03;;;;;;;16.20;12.30;;;;;;;33.83;34.88;100028.10;108184;1252;63914;-70
2023/06/23 04:13:31;;;;;;;15.40;12.40;;;;;;;33.76;34.94;100025.95;108224;1251;60326;-69
2023/06/23 04:15:58;;;;;;;16.10;12.50;;;;;;;33.59;34.92;100024.48;108092;1256;60318;-67
2023/06/23 04:18:26;;;;;;;15.90;11.70;;;;;;;33.52;35.10;100025.23;108269;1251;73866;-67
2023/06/23 04:20:54;;;;;;;17.00;12.20;;;;;;;33.64;35.09;100026.23;108251;1251;70121;-68
2023/06/23 04:23:21;;;;;;;19.20;12.50;;;;;;;33.99;34.41;100023.81;108167;1251;71390;-68
2023/06/23 04:25:48;;;;;;;20.60;13.30;;;;;;;34.11;34.51;100021.56;108161;1251;59113;-69
2023/06/23 04:28:16;;;;;;;17.70;12.80;;;;;;;34.06;34.29;100022.13;108233;1251;60295;-66
2023/06/23 04:30:44;;;;;;;16.90;12.30;;;;;;;34.16;34.26;100024.80;107985;1251;72648;-66
2023/06/23 04:33:11;;;;;;;19.40;11.30;;;;;;;34.29;34.06;100033.27;108016;1251;60686;-69
2023/06/23 04:35:40;;;;;;;17.10;12.70;;;;;;;34.64;33.56;100030.80;108346;1251;63738;-68
2023/06/23 04:38:10;;;;;;;18.10;11.50;;;;;;;34.83;33.60;100034.48;108097;1251;60466;-68
2023/06/23 04:40:40;;;;;;;21.00;12.30;;;;;;;35.00;33.09;100038.09;108253;1251;60540;-68
2023/06/23 04:43:13;;;;;;;18.10;12.40;;;;;;;34.97;32.79;100030.23;108407;1251;64059;-68
2023/06/23 04:45:48;;;;;;;16.10;11.10;;;;;;;35.24;32.59;100026.09;108321;1251;60354;-68
2023/06/23 04:48:15;;;;;;;17.80;12.30;;;;;;;35.54;32.22;100028.88;108041;1254;64266;-68
2023/06/23 04:50:43;;;;;;;15.10;11.10;;;;;;;35.75;31.96;100026.66;107992;1258;60553;-66
2023/06/23 04:53:15;;;;;;;14.40;11.10;;;;;;;35.86;31.83;100030.14;108088;1254;60517;-68
2023/06/23 04:55:44;;;;;;;17.80;11.60;;;;;;;36.32;30.89;100027.57;108156;1252;63655;-67
2023/06/23 04:58:11;;;;;;;17.80;11.40;;;;;;;36.48;30.65;100024.86;108102;1254;61551;-68
2023/06/23 05:00:38;;;;;;;15.20;11.30;;;;;;;36.56;30.47;100022.91;108005;1254;62509;-67
2023/06/23 05:03:06;;;;;;;14.10;11.10;;;;;;;36.69;29.83;100020.19;108040;1253;60261;-68
2023/06/23 05:05:33;;;;;;;13.70;10.40;;;;;;;36.89;30.21;100021.46;108333;1254;60511;-68
2023/06/23 05:08:01;;;;;;;14.40;9.90;;;;;;;37.07;29.74;100022.14;108012;1254;64995;-69
2023/06/23 05:10:29;;;;;;;16.70;10.90;;;;;;;37.21;29.53;100018.27;109142;1254;61504;-68
2023/06/23 05:12:57;;;;;;;14.90;11.00;;;;;;;37.55;29.22;100015.64;107991;1254;63890;-68
2023/06/23 05:15:25;;;;;;;16.60;10.50;;;;;;;37.85;28.77;100015.92;107906;1254;60311;-69
2023/06/23 05:17:54;;;;;;;11.50;9.50;;;;;;;37.94;28.76;100011.30;107859;1254;60463;-67
2023/06/23 05:20:22;;;;;;;13.80;11.30;;;;;;;38.12;28.40;100009.86;108022;1254;64905;-68
2023/06/23 05:22:50;;;;;;;16.70;10.90;;;;;;;38.12;28.16;100011.19;108038;1252;60323;-68
2023/06/23 05:25:18;;;;;;;12.90;9.60;;;;;;;38.34;28.32;100013.32;107895;1254;62424;-68
2023/06/23 05:27:45;;;;;;;14.80;10.00;;;;;;;38.78;27.78;100011.54;107934;1254;60446;-68
2023/06/23 05:30:15;;;;;;;11.00;9.60;;;;;;;39.21;27.35;100009.86;108028;1253;60296;-68
2023/06/23 05:32:42;;;;;;;10.30;9.20;;;;;;;39.54;26.40;100010.72;108060;1252;64948;-68
2023/06/23 05:35:10;;;;;;;11.10;8.30;;;;;;;39.74;25.90;100012.60;108005;1254;60516;-69
2023/06/23 05:37:38;;;;;;;11.80;9.30;;;;;;;39.59;25.74;100005.79;108056;1254;64248;-69
2023/06/23 05:40:07;;;;;;;12.30;10.00;;;;;;;39.58;25.63;100003.69;108028;1254;60470;-67
2023/06/23 05:42:34;;;;;;;13.00;9.00;;;;;;;39.79;25.69;100005.36;108173;1254;59148;-69
2023/06/23 05:45:02;;;;;;;13.70;10.10;;;;;;;40.02;25.28;100002.23;107967;1252;67497;-68
2023/06/23 05:48:12;;;;;;;11.30;9.20;;;;;;;40.17;25.02;100003.43;108010;1251;60319;-67
2023/06/23 05:50:40;;;;;;;11.00;8.60;;;;;;;40.26;24.80;100004.39;107828;1251;64291;-69
2023/06/23 05:53:10;;;;;;;11.90;9.30;;;;;;;40.19;25.02;100000.92;108007;1251;60422;-69
2023/06/23 05:56:03;;;;;;;11.90;9.70;;;;;;;40.25;25.14;100001.61;108087;1251;59231;-69
2023/06/23 05:58:34;;;;;;;9.60;8.60;;;;;;;40.64;25.07;100003.77;108233;1251;63644;-70
2023/06/23 06:01:05;;;;;;;11.00;9.50;;;;;;;40.87;24.53;100006.80;108116;1251;60385;-68
2023/06/23 06:03:51;;;;;;;;;;;;;;;41.13;23.99;100007.80;108082;1251;63803;-69
2023/06/23 06:06:19;;;;;;;11.30;9.20;;;;;;;41.30;23.89;100011.15;108074;1256;60615;-69
2023/06/23 06:08:49;;;;;;;11.20;9.10;;;;;;;41.06;23.68;100009.81;108073;1251;60668;-68
2023/06/23 06:11:16;;;;;;;10.30;9.10;;;;;;;41.03;23.71;100007.67;108138;1251;63663;-69
2023/06/23 06:13:44;;;;;;;10.50;9.10;;;;;;;41.20;23.66;100007.20;107834;1251;61840;-68
2023/06/23 06:16:11;;;;;;;10.20;8.70;;;;;;;41.51;23.36;100006.37;108134;1251;62504;-71
2023/06/23 06:18:39;;;;;;;10.40;7.70;;;;;;;41.72;23.19;100005.81;108073;1251;62255;-69
2023/06/23 06:21:07;;;;;;;11.80;9.30;;;;;;;41.49;23.23;100006.40;108092;1251;60305;-70
2023/06/23 06:23:34;;;;;;;10.50;8.80;;;;;;;41.47;23.33;100001.02;108039;1251;64983;-70
2023/06/23 06:26:02;;;;;;;10.80;8.80;;;;;;;41.52;23.53;99997.27;107925;1251;60126;-69
2023/06/23 06:28:29;;;;;;;10.50;8.60;;;;;;;41.47;23.33;99991.95;107907;1251;64516;-70
2023/06/23 06:30:57;;;;;;;11.70;9.20;;;;;;;41.39;23.34;99989.91;107809;1261;60315;-70
2023/06/23 06:33:24;;;;;;;10.30;8.70;;;;;;;41.61;23.34;99986.17;107911;1251;60328;-70
2023/06/23 06:35:52;;;;;;;11.50;9.40;;;;;;;42.14;22.85;99983.35;107911;1251;64280;-69
2023/06/23 06:38:19;;;;;;;10.50;8.80;;;;;;;42.47;22.61;99983.63;108019;1251;61468;-68
2023/06/23 06:40:49;;;;;;;13.20;8.70;;;;;;;42.68;22.40;99984.69;107854;1251;62635;-69
2023/06/23 06:43:16;;;;;;;11.30;9.00;;;;;;;42.95;21.82;99985.93;107899;1252;58853;-70
2023/06/23 06:45:43;;;;;;;16.60;8.80;;;;;;;43.19;21.61;99987.61;108124;1251;60394;-71
2023/06/23 06:48:11;;;;;;;10.90;8.50;;;;;;;43.28;21.75;99980.81;107868;1254;65187;-70
2023/06/23 06:50:39;;;;;;;10.70;9.10;;;;;;;43.38;21.76;99974.89;107921;1257;60535;-69
2023/06/23 06:53:06;;;;;;;14.00;9.20;;;;;;;43.54;21.72;99970.62;108011;1254;63864;-70
2023/06/23 06:55:34;;;;;;;11.20;8.40;;;;;;;43.75;21.42;99970.92;107667;1252;60332;-69
2023/06/23 06:58:02;;;;;;;8.90;8.00;;;;;;;43.89;21.02;99970.45;108008;1254;60326;-69
2023/06/23 07:00:30;;;;;;;11.30;8.40;;;;;;;44.18;20.79;99968.38;107833;1254;63701;-69
2023/06/23 07:02:58;;;;;;;15.20;8.00;;;;;;;44.24;20.53;99968.35;107932;1253;60269;-70
2023/06/23 07:05:26;;;;;;;13.40;8.40;;;;;;;43.85;20.94;99962.61;107934;1252;62524;-69
2023/06/23 07:07:53;;;;;;;10.50;8.60;;;;;;;43.02;21.54;99967.35;107941;1253;60304;-71
2023/06/23 07:10:20;;;;;;;9.90;8.30;;;;;;;42.85;21.53;99964.85;107944;1254;59991;-70
2023/06/23 07:12:48;;;;;;;12.50;8.70;;;;;;;43.14;21.53;99958.13;107966;1254;63615;-70
2023/06/23 07:15:15;;;;;;;11.00;8.20;;;;;;;43.45;21.14;99955.64;107986;1259;61486;-69
2023/06/23 07:17:43;;;;;;;9.90;8.80;;;;;;;43.77;20.99;99956.50;107950;1254;63799;-68
2023/06/23 07:20:11;;;;;;;10.60;8.20;;;;;;;43.97;20.65;99951.95;107954;1254;60310;-68
2023/06/23 07:22:38;;;;;;;12.50;8.70;;;;;;;43.75;20.88;99952.84;107969;1253;61034;-69
2023/06/23 07:25:06;;;;;;;9.40;7.90;;;;;;;43.95;20.67;99958.77;108036;1253;65513;-70
2023/06/23 07:27:33;;;;;;;9.20;8.20;;;;;;;43.96;20.34;99959.95;108081;1254;60293;-68
2023/06/23 07:30:00;;;;;;;14.00;8.50;;;;;;;43.97;20.51;99958.45;107956;1254;63854;-70
2023/06/23 07:32:28;;;;;;;11.70;8.90;;;;;;;44.08;20.68;99948.66;107949;1254;60397;-69
2023/06/23 07:34:56;;;;;;;9.70;8.40;;;;;;;44.28;20.57;99947.80;107980;1253;60277;-70
2023/06/23 07:37:23;;;;;;;10.60;9.00;;;;;;;44.44;20.45;99951.33;107955;1252;64986;-70
2023/06/23 07:39:51;;;;;;;10.70;8.20;;;;;;;44.79;19.90;99947.86;108009;1254;60329;-70
2023/06/23 07:42:18;;;;;;;9.20;8.00;;;;;;;44.79;19.91;99950.97;107975;1254;62488;-70
2023/06/23 07:44:45;;;;;;;9.80;8.00;;;;;;;44.66;19.91;99948.61;108015;1254;60192;-71
2023/06/23 07:47:13;;;;;;;9.20;8.20;;;;;;;44.72;19.90;99948.40;108010;1254;60287;-70
2023/06/23 07:49:42;;;;;;;11.50;8.70;;;;;;;44.88;19.97;99945.31;108028;1256;63730;-69
2023/06/23 07:52:09;;;;;;;10.00;8.60;;;;;;;44.85;19.70;99947.89;108043;1251;61402;-70
2023/06/23 07:54:39;;;;;;;11.80;8.40;;;;;;;44.39;19.89;99946.70;108038;1259;62428;-70
2023/06/23 07:57:08;;;;;;;16.60;8.10;;;;;;;44.40;19.84;99945.54;107950;1255;60679;-69
2023/06/23 07:59:35;;;;;;;10.30;8.10;;;;;;;44.36;19.82;99948.69;108126;1251;60400;-69
2023/06/23 08:02:03;;;;;;;9.80;8.10;;;;;;;44.19;19.99;99952.33;108106;1251;63817;-71
2023/06/23 08:04:31;;;;;;;9.20;8.10;;;;;;;44.18;19.92;99954.56;108108;1251;61391;-70
2023/06/23 08:06:59;;;;;;;9.80;8.00;;;;;;;43.99;20.14;99949.45;108096;1254;62718;-70
2023/06/23 08:09:26;;;;;;;9.40;8.50;;;;;;;43.76;20.39;99942.20;108090;1254;60321;-69
2023/06/23 08:11:54;;;;;;;9.30;7.90;;;;;;;43.85;20.46;99934.52;108091;1251;60325;-70
2023/06/23 08:14:21;;;;;;;8.20;7.30;;;;;;;44.14;19.92;99932.08;108134;1251;65088;-70
2023/06/23 08:16:49;;;;;;;8.90;7.70;;;;;;;44.44;19.72;99927.70;108087;1251;61590;-68
2023/06/23 08:21:28;;;;;;;8.50;7.60;;;;;;;42.86;21.01;99921.17;104763;1292;601442;-70
2023/06/23 08:23:55;;;;;;;8.50;7.60;;;;;;;44.08;19.50;99924.45;107147;1265;59365;-70
2023/06/23 08:26:23;;;;;;;9.60;8.10;;;;;;;44.17;19.48;99925.80;107156;1266;59365;-72
2023/06/23 08:28:50;;;;;;;8.40;7.40;;;;;;;44.38;19.25;99928.73;107086;1267;63338;-69
2023/06/23 08:31:18;;;;;;;11.00;7.70;;;;;;;44.47;19.10;99921.02;107085;1266;61435;-70
2023/06/23 08:33:45;;;;;;;9.50;7.40;;;;;;;44.58;19.16;99922.90;107160;1266;62705;-70
2023/06/23 08:36:12;;;;;;;9.60;8.00;;;;;;;44.74;18.76;99922.28;107164;1263;185703;-69
2023/06/23 08:38:40;;;;;;;10.90;7.90;;;;;;;44.70;18.81;99924.36;107326;1262;59045;-69
2023/06/23 08:41:08;;;;;;;9.30;7.80;;;;;;;44.72;18.86;99920.03;107334;1263;63311;-67
2023/06/23 08:43:36;;;;;;;10.60;8.30;;;;;;;44.61;18.91;99925.48;107322;1262;61467;-69
2023/06/23 08:46:03;;;;;;;9.20;7.70;;;;;;;44.79;19.02;99918.42;107241;1264;64332;-70
2023/06/23 08:48:31;;;;;;;15.90;8.70;;;;;;;44.90;18.97;99913.60;107121;1267;59634;-69
2023/06/23 08:51:01;;;;;;;13.20;9.10;;;;;;;44.61;19.30;99922.04;107218;1265;59329;-68
2023/06/23 08:53:28;;;;;;;11.60;8.90;;;;;;;44.73;19.40;99919.67;107364;1269;63170;-69
2023/06/23 08:55:56;;;;;;;10.20;8.80;;;;;;;45.12;18.88;99916.52;107166;1265;61844;-69
2023/06/23 08:58:24;;;;;;;13.70;8.30;;;;;;;45.16;18.61;99910.52;107200;1265;63755;-70
2023/06/23 09:00:52;;;;;;;11.60;8.00;;;;;;;45.12;19.14;99905.70;107208;1265;59158;-70
2023/06/23 09:03:20;;;;;;;12.60;8.00;;;;;;;45.23;18.62;99905.30;107294;1265;59555;-69
2023/06/23 09:05:48;;;;;;;11.70;8.50;;;;;;;45.02;18.58;99909.58;107116;1266;64227;-70
2023/06/23 09:08:15;;;;;;;11.50;8.30;;;;;;;45.00;18.74;99906.43;107199;1265;60271;-71
2023/06/23 09:10:43;;;;;;;12.60;8.20;;;;;;;44.64;18.76;99904.79;107052;1267;63737;-71
2023/06/23 09:13:16;;;;;;;8.80;6.90;;;;;;;44.20;18.52;99906.20;107453;1260;59407;-71
2023/06/23 09:15:45;;;;;;;12.70;8.10;;;;;;;44.23;18.67;99902.59;107463;1260;59643;-71
2023/06/23 09:18:31;;;;;;;10.10;8.10;;;;;;;44.29;18.89;99901.71;107424;1260;74554;-70
2023/06/23 09:21:00;;;;;;;9.10;8.00;;;;;;;44.47;18.63;99900.80;107436;1260;61537;-71
2023/06/23 09:23:30;;;;;;;9.30;8.40;;;;;;;44.71;18.52;99891.85;107488;1260;63954;-71
2023/06/23 09:25:59;;;;;;;9.80;8.10;;;;;;;44.96;18.24;99895.23;107400;1260;59758;-69
2023/06/23 09:28:28;;;;;;;12.00;8.00;;;;;;;44.95;18.21;99895.59;107405;1260;59639;-69
2023/06/23 09:30:57;;;;;;;8.60;7.60;;;;;;;45.10;18.14;99895.34;107586;1260;64200;-69
2023/06/23 09:33:25;;;;;;;8.10;7.30;;;;;;;45.17;18.02;99890.39;107399;1266;60804;-69
2023/06/23 09:35:53;;;;;;;9.70;7.10;;;;;;;45.67;17.64;99877.66;107401;1263;62547;-71
2023/06/23 09:38:22;;;;;;;10.00;7.00;;;;;;;45.60;17.42;99874.85;107424;1260;59602;-69
2023/06/23 09:41:13;;;;;;;9.80;7.10;;;;;;;45.29;17.28;99874.09;107417;1260;60326;-71
2023/06/23 09:43:42;;;;;;;;;;;;;;;45.02;17.78;99874.74;107432;1260;64190;-70
2023/06/23 09:46:10;;;;;;;8.70;7.20;;;;;;;45.04;17.59;99876.66;107437;1260;61500;-70
2023/06/23 09:48:40;;;;;;;8.40;7.40;;;;;;;45.56;17.31;99863.70;107368;1260;62705;-70
2023/06/23 09:51:07;;;;;;;9.90;7.50;;;;;;;45.80;17.20;99867.20;107400;1260;59649;-69
2023/06/23 09:53:36;;;;;;;9.80;6.90;;;;;;;46.24;17.24;99873.45;107469;1260;59554;-71
2023/06/23 09:56:04;;;;;;;8.10;6.90;;;;;;;46.65;16.69;99872.69;107465;1260;62934;-71
2023/06/23 09:58:38;;;;;;;8.50;7.70;;;;;;;46.58;16.62;99871.89;107454;1260;60212;-70
2023/06/23 10:01:08;;;;;;;9.70;6.80;;;;;;;46.33;16.42;99868.63;107585;1260;70833;-70
2023/06/23 10:03:51;;;;;;;10.70;7.70;;;;;;;46.26;16.68;99861.43;107437;1260;59569;-70
2023/06/23 10:06:29;;;;;;;10.00;7.30;;;;;;;46.11;16.94;99854.80;107481;1264;59641;-70
2023/06/23 10:08:57;;;;;;;11.90;7.50;;;;;;;46.23;16.90;99858.37;107684;1260;64193;-70
2023/06/23 10:11:45;;;;;;;9.60;7.40;;;;;;;45.90;17.12;99859.14;107698;1260;61338;-69
2023/06/23 10:14:15;;;;;;;9.20;6.90;;;;;;;45.93;17.11;99853.60;107477;1260;63949;-69
2023/06/23 10:16:46;;;;;;;10.00;7.50;;;;;;;46.42;16.99;99851.42;107472;1260;59656;-69
2023/06/23 10:19:13;;;;;;;8.90;6.90;;;;;;;46.98;16.70;99849.89;107448;1260;59721;-70
2023/06/23 10:21:41;;;;;;;8.80;6.90;;;;;;;46.42;16.67;99857.93;107460;1260;73504;-69
2023/06/23 10:24:12;;;;;;;7.80;7.10;;;;;;;46.48;16.70;99855.18;107430;1260;61409;-70
2023/06/23 10:26:39;;;;;;;7.70;6.90;;;;;;;46.82;16.75;99852.84;107399;1260;63849;-70
2023/06/23 10:29:12;;;;;;;8.90;7.50;;;;;;;46.84;16.49;99854.43;107342;1262;59631;-69
2023/06/23 10:31:40;;;;;;;8.70;7.00;;;;;;;46.81;16.53;99853.09;108690;1260;57910;-70
2023/06/23 10:34:12;;;;;;;12.50;7.00;;;;;;;47.04;16.41;99845.46;107639;1260;64262;-68
2023/06/23 10:36:41;;;;;;;8.20;6.90;;;;;;;46.78;16.07;99843.00;107465;1260;61485;-69
2023/06/23 10:39:12;;;;;;;10.00;7.00;;;;;;;46.32;16.77;99850.93;107522;1263;64208;-69
2023/06/23 10:41:42;;;;;;;9.80;6.90;;;;;;;46.09;16.97;99856.57;107540;1260;59624;-69
2023/06/23 10:44:10;;;;;;;9.00;7.10;;;;;;;45.78;16.98;99861.23;107467;1260;59154;-70
2023/06/23 10:46:38;;;;;;;7.70;7.00;;;;;;;45.40;17.27;99856.32;107476;1260;62927;-68
2023/06/23 10:49:07;;;;;;;11.00;7.30;;;;;;;45.34;17.53;99850.54;107579;1260;61430;-69
2023/06/23 10:51:36;;;;;;;7.60;6.80;;;;;;;45.08;17.88;99854.23;107437;1260;63700;-68
2023/06/23 10:54:07;;;;;;;8.00;7.10;;;;;;;44.76;18.03;99855.23;107487;1260;59199;-70
2023/06/23 10:56:37;;;;;;;8.70;7.50;;;;;;;44.63;18.15;99852.44;107525;1260;59518;-69
2023/06/23 10:59:16;;;;;;;8.00;7.00;;;;;;;44.95;18.20;99855.18;107554;1260;64247;-69
2023/06/23 11:01:59;;;;;;;8.70;7.50;;;;;;;44.95;17.94;99854.02;107533;1264;60118;-70
2023/06/23 11:04:31;;;;;;;9.00;7.50;;;;;;;45.08;17.85;99847.52;107426;1260;62503;-69
2023/06/23 11:07:03;;;;;;;7.80;7.00;;;;;;;45.05;17.93;99849.15;107503;1260;59537;-70
2023/06/23 11:09:43;;;;;;;10.80;7.10;;;;;;;45.05;18.05;99846.15;108793;1260;57645;-70
2023/06/23 11:12:34;;;;;;;9.10;7.30;;;;;;;45.05;17.97;99839.98;108455;1260;63101;-69
2023/06/23 11:15:08;;;;;;;7.90;7.10;;;;;;;44.50;18.18;99848.52;107522;1260;60280;-70
2023/06/23 11:17:42;;;;;;;8.40;7.20;;;;;;;44.26;18.50;99850.45;107511;1260;62529;-73
2023/06/23 11:20:27;;;;;;;9.90;7.40;;;;;;;44.46;18.58;99846.45;107510;1259;58905;-70
2023/06/23 11:23:05;;;;;;;8.50;7.60;;;;;;;44.62;18.36;99842.44;107471;1265;59743;-70
2023/06/23 11:25:46;;;;;;;8.00;7.10;;;;;;;44.71;18.35;99837.33;107691;1259;62855;-71
2023/06/23 11:28:34;;;;;;;8.80;7.30;;;;;;;44.68;18.37;99835.90;107499;1260;63559;-69